createdAt,value
2022-10-17T00:00:54.450Z,101047.50
2022-10-17T00:03:42.445Z,101049.38
2022-10-17T00:06:29.694Z,101042.22
2022-10-17T00:09:16.806Z,101046.88
2022-10-17T00:12:05.138Z,101051.53
2022-10-17T00:14:52.846Z,101056.16
2022-10-17T00:17:42.147Z,101054.03
2022-10-17T00:20:30.407Z,101061.25
2022-10-17T00:23:18.635Z,101058.91
2022-10-17T00:26:07.203Z,101063.34
2022-10-17T00:28:55.354Z,101064.59
2022-10-17T00:31:43.220Z,101062.94
2022-10-17T00:34:32.533Z,101058.28
2022-10-17T00:37:20.393Z,101059.94
2022-10-17T00:40:09.667Z,101060.19
2022-10-17T00:42:56.787Z,101062.69
2022-10-17T00:45:44.167Z,101057.63
2022-10-17T00:48:33.030Z,101055.28
2022-10-17T00:51:26.185Z,101054.25
2022-10-17T00:54:16.174Z,101058.28
2022-10-17T00:57:04.727Z,101053.19
2022-10-17T00:59:57.134Z,101050.63
2022-10-17T01:02:45.128Z,101058.63
2022-10-17T01:05:32.529Z,101059.09
2022-10-17T01:08:21.273Z,101057.00
2022-10-17T01:11:21.978Z,101062.69
2022-10-17T01:14:16.527Z,101048.75
2022-10-17T01:17:13.159Z,101057.19
2022-10-17T01:20:28.707Z,101055.69
2022-10-17T01:23:50.479Z,101054.69
2022-10-17T01:27:00.416Z,101050.69
2022-10-17T01:30:17.055Z,101048.97
2022-10-17T01:33:12.119Z,101040.94
2022-10-17T01:36:05.774Z,101041.78
2022-10-17T01:39:02.256Z,101043.47
2022-10-17T01:41:57.987Z,101044.31
2022-10-17T01:44:50.506Z,101040.31
2022-10-17T01:47:38.286Z,101033.75
2022-10-17T01:50:30.822Z,101027.84
2022-10-17T01:53:23.225Z,101040.09
2022-10-17T01:56:15.516Z,101029.31
2022-10-17T01:59:08.451Z,101028.91
2022-10-17T02:01:59.375Z,101021.91
2022-10-17T02:04:48.931Z,101016.00
2022-10-17T02:07:37.686Z,101016.00
2022-10-17T02:10:36.756Z,101006.09
2022-10-17T02:13:33.184Z,101006.06
2022-10-17T02:16:34.300Z,101003.75
2022-10-17T02:19:41.127Z,100999.72
2022-10-17T02:22:39.028Z,101002.88
2022-10-17T02:25:37.145Z,101000.16
2022-10-17T02:28:31.239Z,100998.28
2022-10-17T02:31:23.794Z,100998.66
2022-10-17T02:34:18.203Z,101005.41
2022-10-17T02:37:09.567Z,101006.25
2022-10-17T02:39:59.491Z,100993.16
2022-10-17T02:42:48.706Z,101006.25
2022-10-17T02:45:38.432Z,101002.06
2022-10-17T02:48:32.338Z,101004.56
2022-10-17T02:51:29.481Z,100994.00
2022-10-17T02:54:23.136Z,100995.47
2022-10-17T02:57:17.576Z,100986.41
2022-10-17T03:00:10.205Z,100986.88
2022-10-17T03:02:57.956Z,100989.34
2022-10-17T03:05:45.739Z,100984.50
2022-10-17T03:08:33.213Z,100981.34
2022-10-17T03:11:20.997Z,100972.88
2022-10-17T03:14:08.577Z,100975.22
2022-10-17T03:16:57.710Z,100977.97
2022-10-17T03:19:46.697Z,100982.81
2022-10-17T03:22:35.585Z,100994.44
2022-10-17T03:25:24.816Z,100984.09
2022-10-17T03:28:13.257Z,100991.53
2022-10-17T03:31:00.570Z,100988.94
2022-10-17T03:33:49.957Z,100994.28
2022-10-17T03:36:37.366Z,100998.84
2022-10-17T03:39:24.825Z,101001.19
2022-10-17T03:42:12.533Z,100999.75
2022-10-17T03:45:00.113Z,101000.78
2022-10-17T03:47:48.147Z,101003.50
2022-10-17T03:50:37.589Z,101005.81
2022-10-17T03:53:25.101Z,101002.09
2022-10-17T03:56:15.093Z,101003.34
2022-10-17T03:59:03.364Z,100999.53
2022-10-17T04:01:53.847Z,100998.28
2022-10-17T04:04:42.493Z,101004.84
2022-10-17T04:07:31.375Z,101008.00
2022-10-17T04:10:19.307Z,101013.06
2022-10-17T04:13:08.330Z,101004.34
2022-10-17T04:15:56.407Z,101005.88
2022-10-17T04:18:44.130Z,101008.00
2022-10-17T04:21:32.681Z,101018.06
2022-10-17T04:24:26.712Z,101017.22
2022-10-17T04:27:34.376Z,101003.72
2022-10-17T04:30:22.082Z,101012.16
2022-10-17T04:33:09.379Z,101002.00
2022-10-17T04:35:58.199Z,101002.88
2022-10-17T04:38:46.115Z,100994.00
2022-10-17T04:41:35.576Z,101008.41
2022-10-17T04:44:23.149Z,101001.66
2022-10-17T04:47:12.432Z,101010.94
2022-10-17T04:50:00.046Z,101009.91
2022-10-17T04:52:47.546Z,101017.91
2022-10-17T04:55:39.507Z,101006.94
2022-10-17T04:58:30.219Z,101019.00
2022-10-17T05:01:19.789Z,101023.63
2022-10-17T05:04:12.042Z,101029.97
2022-10-17T05:06:59.502Z,101031.22
2022-10-17T05:10:22.239Z,101030.81
2022-10-17T05:13:12.923Z,101028.25
2022-10-17T05:16:03.006Z,101016.84
2022-10-17T05:18:52.958Z,101014.94
2022-10-17T05:21:41.265Z,101020.25
2022-10-17T05:24:28.433Z,101023.41
2022-10-17T05:27:15.483Z,101014.09
2022-10-17T05:30:03.125Z,101010.31
2022-10-17T05:32:56.251Z,101022.75
2022-10-17T05:35:43.879Z,101019.00
2022-10-17T05:38:31.423Z,101020.66
2022-10-17T05:41:20.111Z,101027.63
2022-10-17T05:44:08.026Z,101024.69
2022-10-17T05:47:00.964Z,101024.91
2022-10-17T05:49:52.519Z,101023.22
2022-10-17T05:52:47.333Z,101014.97
2022-10-17T05:55:36.925Z,101013.69
2022-10-17T05:58:45.490Z,101018.56
2022-10-17T06:01:41.971Z,101021.91
2022-10-17T06:04:29.724Z,101026.56
2022-10-17T06:07:18.685Z,101027.41
2022-10-17T06:10:07.718Z,101032.50
2022-10-17T06:12:56.684Z,101020.25
2022-10-17T06:15:45.315Z,101036.72
2022-10-17T06:18:32.181Z,101033.75
2022-10-17T06:21:23.512Z,101035.47
2022-10-17T06:24:13.876Z,101034.41
2022-10-17T06:27:02.751Z,101039.69
2022-10-17T06:29:51.385Z,101043.69
2022-10-17T06:32:38.700Z,101047.94
2022-10-17T06:35:26.890Z,101059.75
2022-10-17T06:38:14.120Z,101063.78
2022-10-17T06:41:08.842Z,101065.25
2022-10-17T06:43:56.254Z,101065.47
2022-10-17T06:47:02.866Z,101073.50
2022-10-17T06:49:50.164Z,101072.66
2022-10-17T06:53:03.855Z,101084.47
2022-10-17T06:56:11.583Z,101100.94
2022-10-17T06:59:19.273Z,101105.56
2022-10-17T07:02:15.199Z,101108.53
2022-10-17T07:05:04.023Z,101110.66
2022-10-17T07:07:52.049Z,101123.72
2022-10-17T07:10:39.726Z,101122.44
2022-10-17T07:13:29.796Z,101125.41
2022-10-17T07:16:17.889Z,101128.59
2022-10-17T07:19:09.173Z,101136.44
2022-10-17T07:21:58.716Z,101139.00
2022-10-17T07:24:46.643Z,101135.66
2022-10-17T07:27:57.990Z,101144.94
2022-10-17T07:30:50.678Z,101134.34
2022-10-17T07:33:41.764Z,101141.50
2022-10-17T07:36:30.135Z,101143.19
2022-10-17T07:39:18.500Z,101162.19
2022-10-17T07:42:07.649Z,101143.97
2022-10-17T07:44:56.505Z,101149.03
2022-10-17T07:47:47.963Z,101143.88
2022-10-17T07:50:36.237Z,101142.75
2022-10-17T07:53:24.043Z,101134.00
2022-10-17T07:56:11.537Z,101140.13
2022-10-17T07:59:00.831Z,101139.03
2022-10-17T08:01:50.829Z,101143.09
2022-10-17T08:04:40.016Z,101142.81
2022-10-17T08:07:29.427Z,101148.69
2022-10-17T08:10:17.967Z,101144.25
2022-10-17T08:13:05.226Z,101141.41
2022-10-17T08:15:52.798Z,101150.28
2022-10-17T08:18:41.388Z,101148.63
2022-10-17T08:21:31.346Z,101137.34
2022-10-17T08:24:18.547Z,101135.22
2022-10-17T08:27:11.715Z,101132.47
2022-10-17T08:29:59.060Z,101131.00
2022-10-17T08:32:46.333Z,101118.19
2022-10-17T08:35:34.041Z,101113.91
2022-10-17T08:38:26.189Z,101121.94
2022-10-17T08:41:32.077Z,101121.28
2022-10-17T08:44:30.402Z,101118.47
2022-10-17T08:47:23.837Z,101104.59
2022-10-17T08:50:18.469Z,101097.09
2022-10-17T08:53:14.067Z,101096.69
2022-10-17T08:56:19.477Z,101105.59
2022-10-17T08:59:13.851Z,101112.06
2022-10-17T09:02:13.984Z,101105.59
2022-10-17T09:05:17.122Z,101116.22
2022-10-17T09:08:19.912Z,101111.69
2022-10-17T09:11:17.494Z,101110.31
2022-10-17T09:14:15.606Z,101112.25
2022-10-17T09:17:17.110Z,101112.25
2022-10-17T09:20:11.209Z,101116.41
2022-10-17T09:23:02.493Z,101123.03
2022-10-17T09:25:54.173Z,101121.66
2022-10-17T09:28:44.209Z,101125.78
2022-10-17T09:31:41.011Z,101123.97
2022-10-17T09:34:30.364Z,101126.09
2022-10-17T09:37:19.199Z,101121.91
2022-10-17T09:40:10.076Z,101119.41
2022-10-17T09:42:57.433Z,101115.44
2022-10-17T09:45:55.822Z,101108.94
2022-10-17T09:48:49.814Z,101114.94
2022-10-17T09:51:40.804Z,101113.59
2022-10-17T09:54:41.104Z,101115.16
2022-10-17T09:57:28.713Z,101112.97
2022-10-17T10:00:23.354Z,101116.19
2022-10-17T10:03:16.900Z,101116.72
2022-10-17T10:06:06.590Z,101115.13
2022-10-17T10:08:56.107Z,101113.69
2022-10-17T10:11:50.065Z,101119.56
2022-10-17T10:14:39.956Z,101111.34
2022-10-17T10:17:39.804Z,101116.31
2022-10-17T10:20:31.854Z,101114.84
2022-10-17T10:23:22.208Z,101119.41
2022-10-17T10:26:34.076Z,101117.72
2022-10-17T10:29:26.855Z,101128.50
2022-10-17T10:32:21.568Z,101124.81
2022-10-17T10:35:20.327Z,101122.59
2022-10-17T10:38:16.957Z,101126.28
2022-10-17T10:41:07.423Z,101129.09
2022-10-17T10:43:57.327Z,101129.00
2022-10-17T10:46:45.431Z,101137.47
2022-10-17T10:49:33.983Z,101135.50
2022-10-17T10:52:30.906Z,101133.88
2022-10-17T10:55:25.844Z,101136.25
2022-10-17T10:58:25.524Z,101138.75
2022-10-17T11:01:21.531Z,101150.53
2022-10-17T11:04:22.820Z,101153.69
2022-10-17T11:07:15.696Z,101163.91
2022-10-17T11:10:13.546Z,101169.41
2022-10-17T11:13:06.966Z,101171.47
2022-10-17T11:16:00.409Z,101170.72
2022-10-17T11:18:52.472Z,101180.34
2022-10-17T11:21:46.574Z,101181.72
2022-10-17T11:24:39.509Z,101174.97
2022-10-17T11:27:29.117Z,101189.97
2022-10-17T11:30:18.665Z,101198.16
2022-10-17T11:33:07.136Z,101195.56
2022-10-17T11:35:58.942Z,101213.25
2022-10-17T11:38:50.027Z,101220.38
2022-10-17T11:41:43.403Z,101228.56
2022-10-17T11:44:36.279Z,101235.03
2022-10-17T11:47:33.841Z,101228.66
2022-10-17T11:53:46.256Z,101241.00
2022-10-17T11:56:42.758Z,101235.44
2022-10-17T11:59:50.265Z,101234.25
2022-10-17T12:02:47.537Z,101244.38
2022-10-17T12:05:41.488Z,101258.31
2022-10-17T12:08:37.923Z,101264.91
2022-10-17T12:11:35.706Z,101259.53
2022-10-17T12:14:38.996Z,101254.63
2022-10-17T12:17:33.186Z,101261.41
2022-10-17T12:20:31.788Z,101250.47
2022-10-17T12:23:30.061Z,101258.25
2022-10-17T12:26:27.427Z,101263.00
2022-10-17T12:29:28.606Z,101263.41
2022-10-17T12:32:17.042Z,101260.28
2022-10-17T12:35:04.877Z,101257.84
2022-10-17T12:38:26.375Z,101263.09
2022-10-17T12:41:13.710Z,101257.22
2022-10-17T12:44:01.563Z,101262.28
2022-10-17T12:46:52.103Z,101267.34
2022-10-17T12:49:42.160Z,101262.31
2022-10-17T12:52:59.777Z,101267.16
2022-10-17T12:55:51.992Z,101262.03
2022-10-17T12:58:46.219Z,101274.38
2022-10-17T13:01:38.589Z,101274.06
2022-10-17T13:04:27.921Z,101267.31
2022-10-17T13:07:20.768Z,101259.97
2022-10-17T13:10:20.425Z,101256.50
2022-10-17T13:13:17.275Z,101253.00
2022-10-17T13:16:05.328Z,101255.69
2022-10-17T13:18:53.976Z,101249.28
2022-10-17T13:21:51.301Z,101269.28
2022-10-17T13:24:40.738Z,101256.50
2022-10-17T13:27:30.811Z,101257.47
2022-10-17T13:30:30.904Z,101262.53
2022-10-17T13:33:33.502Z,101257.00
2022-10-17T13:36:21.357Z,101263.66
2022-10-17T13:39:12.442Z,101263.38
2022-10-17T13:42:02.451Z,101276.41
2022-10-17T13:44:50.106Z,101278.91
2022-10-17T13:47:40.831Z,101272.66
2022-10-17T13:50:51.161Z,101283.75
2022-10-17T13:53:44.033Z,101292.16
2022-10-17T13:56:32.338Z,101293.25
2022-10-17T13:59:25.387Z,101308.09
2022-10-17T14:02:17.018Z,101300.47
2022-10-17T14:05:18.204Z,101309.31
2022-10-17T14:08:18.018Z,101309.81
2022-10-17T14:11:26.506Z,101318.00
2022-10-17T14:14:20.649Z,101317.28
2022-10-17T14:17:15.044Z,101318.13
2022-10-17T14:23:44.666Z,101326.03
2022-10-17T14:26:37.054Z,101330.75
2022-10-17T14:29:26.901Z,101330.59
2022-10-17T14:32:16.141Z,101332.53
2022-10-17T14:35:41.116Z,101337.25
2022-10-17T14:38:16.045Z,101340.16
2022-10-17T14:41:37.827Z,101347.22
2022-10-17T14:44:22.063Z,101344.22
2022-10-17T14:47:42.325Z,101357.13
2022-10-17T14:50:32.062Z,101360.59
2022-10-17T14:53:23.200Z,101364.94
2022-10-17T14:56:24.307Z,101367.56
2022-10-17T14:59:21.388Z,101375.50
2022-10-17T15:02:14.315Z,101368.38
2022-10-17T15:05:01.718Z,101377.75
2022-10-17T15:07:50.650Z,101382.81
2022-10-17T15:10:41.858Z,101382.44
2022-10-17T15:13:32.139Z,101382.44
2022-10-17T15:16:25.063Z,101387.03
2022-10-17T15:19:14.904Z,101376.44
2022-10-17T15:22:02.497Z,101377.97
2022-10-17T15:24:51.395Z,101381.19
2022-10-17T15:27:39.278Z,101390.59
2022-10-17T15:30:28.708Z,101393.25
2022-10-17T15:33:16.093Z,101387.19
2022-10-17T15:36:03.455Z,101384.53
2022-10-17T15:38:50.565Z,101375.22
2022-10-17T15:41:39.986Z,101388.16
2022-10-17T15:44:27.220Z,101383.47
2022-10-17T15:47:23.976Z,101394.53
2022-10-17T15:50:15.934Z,101401.53
2022-10-17T15:53:03.873Z,101399.25
2022-10-17T15:55:52.095Z,101407.75
2022-10-17T15:58:41.682Z,101410.59
2022-10-17T16:01:31.956Z,101420.91
2022-10-17T16:04:19.538Z,101414.84
2022-10-17T16:07:07.321Z,101432.75
2022-10-17T16:09:55.119Z,101435.50
2022-10-17T16:12:43.541Z,101444.34
2022-10-17T16:15:32.550Z,101445.06
2022-10-17T16:18:21.225Z,101454.72
2022-10-17T16:21:11.606Z,101461.19
2022-10-17T16:24:00.569Z,101462.50
2022-10-17T16:26:48.146Z,101455.66
2022-10-17T16:29:35.350Z,101461.66
2022-10-17T16:32:24.579Z,101462.88
2022-10-17T16:35:17.750Z,101464.19
2022-10-17T16:38:04.914Z,101461.56
2022-10-17T16:40:53.066Z,101482.88
2022-10-17T16:43:41.425Z,101489.00
2022-10-17T16:46:30.183Z,101480.09
2022-10-17T16:49:19.127Z,101475.47
2022-10-17T16:52:07.385Z,101491.63
2022-10-17T16:54:55.057Z,101503.28
2022-10-17T17:00:40.507Z,101509.16
2022-10-17T17:03:28.147Z,101515.22
2022-10-17T17:06:19.578Z,101524.47
2022-10-17T17:09:07.120Z,101517.53
2022-10-17T17:11:54.961Z,101522.25
2022-10-17T17:14:42.624Z,101525.03
2022-10-17T17:17:44.222Z,101530.44
2022-10-17T17:20:36.624Z,101543.44
2022-10-17T17:23:25.827Z,101546.88
2022-10-17T17:26:15.626Z,101539.66
2022-10-17T17:29:03.461Z,101555.59
2022-10-17T17:31:52.046Z,101543.50
2022-10-17T17:34:39.493Z,101541.81
2022-10-17T17:37:28.538Z,101547.34
2022-10-17T17:40:17.997Z,101543.97
2022-10-17T17:43:05.431Z,101542.75
2022-10-17T17:45:53.071Z,101545.94
2022-10-17T17:48:42.715Z,101543.22
2022-10-17T17:51:30.616Z,101548.13
2022-10-17T17:54:18.425Z,101555.59
2022-10-17T17:57:08.563Z,101547.50
2022-10-17T17:59:56.317Z,101550.72
2022-10-17T18:02:44.559Z,101549.81
2022-10-17T18:05:32.426Z,101553.03
2022-10-17T18:08:19.967Z,101552.63
2022-10-17T18:11:07.839Z,101561.16
2022-10-17T18:13:57.867Z,101547.56
2022-10-17T18:16:45.611Z,101550.53
2022-10-17T18:19:32.856Z,101548.84
2022-10-17T18:22:20.426Z,101546.91
2022-10-17T18:25:09.050Z,101552.63
2022-10-17T18:27:56.757Z,101568.78
2022-10-17T18:30:45.536Z,101557.59
2022-10-17T18:33:32.948Z,101553.53
2022-10-17T18:36:21.016Z,101562.66
2022-10-17T18:39:08.317Z,101560.78
2022-10-17T18:41:55.662Z,101562.06
2022-10-17T18:44:43.875Z,101562.47
2022-10-17T18:47:33.272Z,101560.56
2022-10-17T18:50:21.198Z,101562.69
2022-10-17T18:53:08.458Z,101572.66
2022-10-17T18:55:56.587Z,101571.78
2022-10-17T18:58:44.661Z,101572.03
2022-10-17T19:01:32.811Z,101589.84
2022-10-17T19:04:21.913Z,101595.78
2022-10-17T19:07:09.695Z,101607.66
2022-10-17T19:09:57.121Z,101599.38
2022-10-17T19:12:44.690Z,101612.13
2022-10-17T19:15:32.529Z,101616.78
2022-10-17T19:18:19.912Z,101612.56
2022-10-17T19:21:10.657Z,101611.47
2022-10-17T19:24:00.373Z,101611.47
2022-10-17T19:26:50.225Z,101621.88
2022-10-17T19:29:37.698Z,101622.72
2022-10-17T19:32:26.438Z,101610.22
2022-10-17T19:35:14.019Z,101610.81
2022-10-17T19:38:03.286Z,101610.84
2022-10-17T19:40:50.973Z,101622.50
2022-10-17T19:43:38.907Z,101616.75
2022-10-17T19:46:29.478Z,101623.13
2022-10-17T19:49:17.296Z,101618.91
2022-10-17T19:52:05.323Z,101617.00
2022-10-17T19:54:54.592Z,101607.00
2022-10-17T19:57:41.887Z,101612.50
2022-10-17T20:00:29.747Z,101609.16
2022-10-17T20:03:17.105Z,101610.84
2022-10-17T20:06:04.740Z,101615.50
2022-10-17T20:08:52.849Z,101613.81
2022-10-17T20:11:42.022Z,101622.94
2022-10-17T20:14:29.655Z,101624.00
2022-10-17T20:17:17.258Z,101629.50
2022-10-17T20:20:08.602Z,101630.34
2022-10-17T20:22:56.383Z,101628.22
2022-10-17T20:25:44.496Z,101640.53
2022-10-17T20:28:34.013Z,101651.75
2022-10-17T20:31:22.568Z,101654.94
2022-10-17T20:34:14.464Z,101665.09
2022-10-17T20:37:02.555Z,101674.84
2022-10-17T20:39:59.930Z,101667.19
2022-10-17T20:42:57.628Z,101674.84
2022-10-17T20:45:51.188Z,101682.03
2022-10-17T20:48:39.717Z,101687.13
2022-10-17T20:51:27.167Z,101685.44
2022-10-17T20:54:14.859Z,101701.97
2022-10-17T20:57:04.796Z,101702.19
2022-10-17T20:59:52.608Z,101709.19
2022-10-17T21:02:41.705Z,101721.88
2022-10-17T21:05:29.262Z,101714.47
2022-10-17T21:08:16.366Z,101718.69
2022-10-17T21:11:11.864Z,101719.31
2022-10-17T21:14:01.218Z,101716.31
2022-10-17T21:16:49.406Z,101718.88
2022-10-17T21:19:38.393Z,101720.56
2022-10-17T21:22:26.062Z,101719.56
2022-10-17T21:25:13.329Z,101718.50
2022-10-17T21:28:00.719Z,101724.38
2022-10-17T21:30:49.481Z,101734.97
2022-10-17T21:33:36.887Z,101734.06
2022-10-17T21:36:26.691Z,101728.56
2022-10-17T21:39:15.549Z,101728.97
2022-10-17T21:42:03.056Z,101721.78
2022-10-17T21:44:50.012Z,101729.56
2022-10-17T21:47:38.560Z,101729.75
2022-10-17T21:50:26.139Z,101734.81
2022-10-17T21:53:15.277Z,101732.72
2022-10-17T21:56:03.987Z,101727.63
2022-10-17T21:58:52.154Z,101725.53
2022-10-17T22:01:41.757Z,101732.31
2022-10-17T22:04:28.956Z,101726.41
2022-10-17T22:07:16.716Z,101729.56
2022-10-17T22:10:06.390Z,101725.97
2022-10-17T22:12:53.910Z,101726.16
2022-10-17T22:15:41.483Z,101720.50
2022-10-17T22:18:28.743Z,101726.00
2022-10-17T22:21:19.340Z,101732.31
2022-10-17T22:24:12.005Z,101735.22
2022-10-17T22:27:00.480Z,101744.97
2022-10-17T22:29:48.008Z,101745.63
2022-10-17T22:32:35.165Z,101734.34
2022-10-17T22:35:22.351Z,101732.88
2022-10-17T22:38:10.186Z,101733.53
2022-10-17T22:40:57.162Z,101737.09
2022-10-17T22:43:46.300Z,101740.75
2022-10-17T22:46:33.961Z,101739.31
2022-10-17T22:49:21.256Z,101755.09
2022-10-17T22:52:08.762Z,101748.31
2022-10-17T22:54:56.246Z,101744.63
2022-10-17T22:57:43.928Z,101749.66
2022-10-17T23:00:32.747Z,101760.34
2022-10-17T23:03:21.836Z,101759.88
2022-10-17T23:06:09.596Z,101766.84
2022-10-17T23:08:56.829Z,101766.63
2022-10-17T23:11:44.283Z,101769.19
2022-10-17T23:14:31.686Z,101771.44
2022-10-17T23:17:19.996Z,101779.03
2022-10-17T23:20:08.792Z,101771.44
2022-10-17T23:22:56.326Z,101771.44
2022-10-17T23:25:44.029Z,101773.50
2022-10-17T23:28:33.608Z,101772.25
2022-10-17T23:31:23.055Z,101778.25
2022-10-17T23:34:12.316Z,101766.28
2022-10-17T23:36:59.477Z,101768.88
2022-10-17T23:39:47.295Z,101767.72
2022-10-17T23:42:34.782Z,101773.16
2022-10-17T23:45:22.476Z,101769.78
2022-10-17T23:48:09.691Z,101764.91
2022-10-17T23:50:59.227Z,101771.47
2022-10-17T23:53:46.762Z,101775.75
2022-10-17T23:56:34.161Z,101778.50
2022-10-17T23:59:21.725Z,101769.78
